Main page
Satellite images 15-day forecastsClimateMarine weather Cyclones Lightning AirportsFAQ Newsletter About
Weather : Europe Africa North America South America Asia Australia-Oceania Others
Languages Contact

Pontianak, Indonesia

latitude: 00-09S, longitude: 109-24E, elevation: 3 m


METAR: WIOO 290300Z 12007KT 9999 FEW014 30/24 Q1010
short-TAF: out of date (61463 hours)
long-TAF: out of date (3008 hours)

Time: 21:44 (14:44 UTC)

Current weather observation

The report was made 11 hours and 44 minutes ago, at 03:00 UTC  
Wind 07 kt from the East/Southeast
Temperature 30°C
Humidity 70%
Pressure 1010 hPa
Visibility 10 km or more
Few clouds at a height of 1400 ft

Change units
The information on this site is subject to a disclaimer
Weather : Europe Africa North America South America Asia Australia-Oceania Others
Satellite images 15-day forecastsClimateMarine weather Cyclones Lightning AirportsFAQ Languages Contact Newsletter About